Time;durP1;ratioP1;P1;durP2;ratioP2;P2;SDS_P1;SDS_P2;PMS_P1;PMS_P2;Temp;Humidity;BMP_temperature;BMP_pressure;BME280_temperature;BME280_humidity;BME280_pressure;Samples;Min_cycle;Max_cycle;Signal;HPM_P1;HPM_P2
2021/07/01 00:00:20;;;;;;;;;;;;;;;11.99;100.00;95812.88;1050259;28;19919;-73
2021/07/01 00:00:51;;;;;;;;;;;;;;;11.99;100.00;95815.56;1050159;28;19916;-72
2021/07/01 00:01:21;;;;;;;;;;;;;;;11.99;100.00;95814.75;1050405;28;20006;-71
2021/07/01 00:01:57;;;;;;;;;;;;;;;12.00;100.00;95814.47;1050312;28;19962;-72
2021/07/01 00:02:28;;;;;;;;;;;;;;;12.00;100.00;95813.69;1050178;28;19935;-72
2021/07/01 00:02:58;;;;;;;;;;;;;;;11.97;100.00;95812.34;1050422;28;20296;-72
2021/07/01 00:03:28;;;;;;;;;;;;;;;12.00;100.00;95816.34;1049908;28;19954;-72
2021/07/01 00:03:58;;;;;;;;;;;;;;;12.00;100.00;95811.00;1050437;28;19916;-72
2021/07/01 00:04:29;;;;;;;;;;;;;;;12.01;100.00;95815.28;1050044;28;20365;-72
2021/07/01 00:04:59;;;;;;;;;;;;;;;12.03;100.00;95811.25;1050341;28;19904;-72
2021/07/01 00:05:29;;;;;;;;;;;;;;;12.04;100.00;95817.41;1050356;28;19912;-72
2021/07/01 00:06:00;;;;;;;;;;;;;;;12.05;100.00;95813.63;1049940;28;19908;-72
2021/07/01 00:06:30;;;;;;;;;;;;;;;12.03;100.00;95810.41;1049966;28;19912;-72
2021/07/01 00:07:00;;;;;;;;;;;;;;;12.02;100.00;95814.19;1049765;28;19919;-72
2021/07/01 00:07:30;;;;;;;;;;;;;;;12.00;100.00;95809.13;1049879;28;19966;-72
2021/07/01 00:08:01;;;;;;;;;;;;;;;12.01;100.00;95808.03;1050210;28;20005;-72
2021/07/01 00:08:31;;;;;;;;;;;;;;;12.02;100.00;95806.16;1050237;28;19909;-72
2021/07/01 00:09:01;;;;;;;;;;;;;;;12.03;100.00;95813.09;1050293;28;20439;-72
2021/07/01 00:09:32;;;;;;;;;;;;;;;12.02;100.00;95806.16;1050190;28;19923;-71
2021/07/01 00:10:05;;;;;;;;;;;;;;;12.02;100.00;95806.94;1050088;28;19908;-72
2021/07/01 00:10:35;;;;;;;;;;;;;;;12.02;100.00;95811.50;1050152;28;20296;-72
2021/07/01 00:11:05;;;;;;;;;;;;;;;12.03;100.00;95807.75;1049420;28;19913;-72
2021/07/01 00:11:36;;;;;;;;;;;;;;;12.07;100.00;95811.47;1049355;28;19912;-71
2021/07/01 00:12:06;;;;;;;;;;;;;;;12.05;100.00;95813.63;1049375;28;19955;-72
2021/07/01 00:12:36;;;;;;;;;;;;;;;11.99;100.00;95809.41;1049386;28;19912;-72
2021/07/01 00:13:07;;;;;;;;;;;;;;;11.99;100.00;95814.75;1049009;28;20365;-73
2021/07/01 00:13:37;;;;;;;;;;;;;;;11.96;100.00;95808.88;1049154;28;19912;-71
2021/07/01 00:14:07;;;;;;;;;;;;;;;11.96;100.00;95805.41;1049020;28;20002;-72
2021/07/01 00:14:38;;;;;;;;;;;;;;;12.00;100.00;95811.00;1049081;28;20468;-71
2021/07/01 00:15:08;;;;;;;;;;;;;;;12.01;100.00;95815.28;1049124;28;19919;-72
2021/07/01 00:15:39;;;;;;;;;;;;;;;12.02;100.00;95814.19;1049433;28;19970;-72
2021/07/01 00:16:09;;;;;;;;;;;;;;;11.97;100.00;95802.44;1048985;28;20361;-72
2021/07/01 00:16:39;;;;;;;;;;;;;;;11.99;100.00;95807.53;1049059;28;19912;-71
2021/07/01 00:17:10;;;;;;;;;;;;;;;12.03;100.00;95815.78;1049046;28;19908;-72
2021/07/01 00:17:40;;;;;;;;;;;;;;;11.95;100.00;95815.31;1049113;28;19958;-72
2021/07/01 00:18:10;;;;;;;;;;;;;;;12.00;100.00;95819.03;1049234;28;19917;-72
2021/07/01 00:18:41;;;;;;;;;;;;;;;12.00;100.00;95811.00;1049013;28;20343;-71
2021/07/01 00:19:11;;;;;;;;;;;;;;;11.92;100.00;95810.50;1049004;28;19919;-72
2021/07/01 00:19:41;;;;;;;;;;;;;;;11.95;100.00;95809.16;1048994;28;19952;-71
2021/07/01 00:20:12;;;;;;;;;;;;;;;11.93;100.00;95814.81;1048938;28;19913;-72
2021/07/01 00:20:42;;;;;;;;;;;;;;;11.95;100.00;95807.28;1049436;28;19920;-72
2021/07/01 00:21:12;;;;;;;;;;;;;;;11.93;100.00;95811.34;1049396;28;20016;-72
2021/07/01 00:21:43;;;;;;;;;;;;;;;11.92;100.00;95810.50;1049316;28;20510;-72
2021/07/01 00:22:13;;;;;;;;;;;;;;;11.83;100.00;95806.88;1049346;28;19939;-72
2021/07/01 00:22:43;;;;;;;;;;;;;;;11.84;100.00;95807.66;1049421;28;20014;-72
2021/07/01 00:23:14;;;;;;;;;;;;;;;11.85;100.00;95812.75;1049027;28;19912;-72
2021/07/01 00:23:44;;;;;;;;;;;;;;;11.83;100.00;95806.88;1048888;28;20534;-72
2021/07/01 00:24:14;;;;;;;;;;;;;;;11.86;100.00;95810.84;1048916;28;19955;-71
2021/07/01 00:24:44;;;;;;;;;;;;;;;11.86;100.00;95808.19;1049044;28;19993;-72
2021/07/01 00:25:15;;;;;;;;;;;;;;;11.85;100.00;95804.69;1049309;28;19912;-72
2021/07/01 00:25:45;;;;;;;;;;;;;;;11.85;100.00;95818.09;1049311;28;20315;-72
2021/07/01 00:26:16;;;;;;;;;;;;;;;11.87;100.00;95813.25;1049240;28;19916;-70
2021/07/01 00:26:46;;;;;;;;;;;;;;;11.88;100.00;95803.34;1049374;28;19913;-71
2021/07/01 00:27:16;;;;;;;;;;;;;;;11.89;100.00;95819.13;1049336;28;19916;-71
2021/07/01 00:27:47;;;;;;;;;;;;;;;11.90;100.00;95810.00;1049325;28;19916;-73
2021/07/01 00:28:17;;;;;;;;;;;;;;;11.91;100.00;95808.94;1049347;28;19962;-73
2021/07/01 00:28:47;;;;;;;;;;;;;;;11.86;100.00;95810.84;1049300;28;20284;-73
2021/07/01 00:29:17;;;;;;;;;;;;;;;11.84;100.00;95808.47;1049331;28;19959;-70
2021/07/01 00:29:48;;;;;;;;;;;;;;;11.81;100.00;95809.00;1049349;28;19917;-73
2021/07/01 00:30:18;;;;;;;;;;;;;;;11.79;100.00;95813.03;1049214;28;20438;-73
2021/07/01 00:30:49;;;;;;;;;;;;;;;11.79;100.00;95811.16;1048983;28;19924;-71
2021/07/01 00:31:19;;;;;;;;;;;;;;;11.78;100.00;95812.25;1048765;28;19912;-70
2021/07/01 00:31:49;;;;;;;;;;;;;;;11.80;100.00;95820.00;1049052;28;20050;-72
2021/07/01 00:32:19;;;;;;;;;;;;;;;11.77;100.00;95813.31;1049036;28;19912;-73
2021/07/01 00:32:50;;;;;;;;;;;;;;;11.79;100.00;95821.88;1048988;28;19920;-73
2021/07/01 00:33:20;;;;;;;;;;;;;;;11.81;100.00;95813.56;1048959;28;20409;-73
2021/07/01 00:33:50;;;;;;;;;;;;;;;11.80;100.00;95810.06;1049102;28;19916;-73
2021/07/01 00:34:21;;;;;;;;;;;;;;;11.83;100.00;95814.91;1049230;28;19977;-73
2021/07/01 00:34:51;;;;;;;;;;;;;;;11.85;100.00;95811.94;1049190;28;19915;-73
2021/07/01 00:35:21;;;;;;;;;;;;;;;11.84;100.00;95813.03;1049260;28;19916;-70
2021/07/01 00:35:51;;;;;;;;;;;;;;;11.84;100.00;95819.19;1049346;28;20301;-70
2021/07/01 00:36:22;;;;;;;;;;;;;;;11.83;100.00;95820.25;1049258;28;19904;-70
2021/07/01 00:36:52;;;;;;;;;;;;;;;11.86;100.00;95818.88;1049186;28;19924;-70
2021/07/01 00:37:22;;;;;;;;;;;;;;;11.84;100.00;95813.03;1049296;28;19911;-70
2021/07/01 00:37:53;;;;;;;;;;;;;;;11.85;100.00;95817.28;1049338;28;19940;-70
2021/07/01 00:38:23;;;;;;;;;;;;;;;11.78;100.00;95809.56;1049205;28;19913;-70
2021/07/01 00:38:53;;;;;;;;;;;;;;;11.81;100.00;95818.91;1049291;28;19912;-70
2021/07/01 00:39:23;;;;;;;;;;;;;;;11.76;100.00;95822.41;1049283;28;19913;-70
2021/07/01 00:39:54;;;;;;;;;;;;;;;11.79;100.00;95816.50;1048933;28;19924;-71
2021/07/01 00:40:24;;;;;;;;;;;;;;;11.81;100.00;95811.66;1048984;28;20440;-71
2021/07/01 00:40:56;;;;;;;;;;;;;;;11.84;100.00;95816.50;1048992;28;20269;-70
2021/07/01 00:41:26;;;;;;;;;;;;;;;11.81;100.00;95818.91;1048878;28;19962;-70
2021/07/01 00:41:56;;;;;;;;;;;;;;;11.75;100.00;95820.84;1049312;28;19924;-70
2021/07/01 00:42:27;;;;;;;;;;;;;;;11.75;100.00;95822.72;1049249;28;20332;-72
2021/07/01 00:42:57;;;;;;;;;;;;;;;11.78;100.00;95819.47;1049219;28;19923;-72
2021/07/01 00:43:27;;;;;;;;;;;;;;;11.76;100.00;95810.91;1049176;28;19948;-71
2021/07/01 00:43:57;;;;;;;;;;;;;;;11.79;100.00;95818.41;1049231;28;19920;-71
2021/07/01 00:44:28;;;;;;;;;;;;;;;11.75;100.00;95820.84;1049342;28;19908;-71
2021/07/01 00:44:58;;;;;;;;;;;;;;;11.79;100.00;95823.75;1049316;28;19912;-71
2021/07/01 00:45:28;;;;;;;;;;;;;;;11.80;100.00;95814.63;1049133;28;20007;-71
2021/07/01 00:45:59;;;;;;;;;;;;;;;11.80;100.00;95818.09;1049314;28;19919;-71
2021/07/01 00:46:29;;;;;;;;;;;;;;;11.77;100.00;95817.88;1049068;28;19909;-71
2021/07/01 00:47:00;;;;;;;;;;;;;;;11.74;100.00;95815.75;1048982;28;19971;-71
2021/07/01 00:47:30;;;;;;;;;;;;;;;11.76;100.00;95821.63;1044601;28;19912;-71
2021/07/01 00:48:00;;;;;;;;;;;;;;;11.74;100.00;95821.13;1044791;28;19913;-71
2021/07/01 00:48:31;;;;;;;;;;;;;;;11.72;100.00;95816.06;1044745;28;20009;-71
2021/07/01 00:49:01;;;;;;;;;;;;;;;11.75;100.00;95820.03;1048980;28;19923;-71
2021/07/01 00:49:31;;;;;;;;;;;;;;;11.75;100.00;95815.47;1049249;28;20361;-71
2021/07/01 00:50:03;;;;;;;;;;;;;;;11.76;100.00;95819.75;1048963;28;19948;-71
2021/07/01 00:50:33;;;;;;;;;;;;;;;11.78;100.00;95822.97;1048849;28;19908;-71
2021/07/01 00:51:03;;;;;;;;;;;;;;;11.82;100.00;95813.28;1048998;28;19916;-71
2021/07/01 00:51:34;;;;;;;;;;;;;;;11.84;100.00;95813.81;1048732;28;19908;-71
2021/07/01 00:52:04;;;;;;;;;;;;;;;11.83;100.00;95822.94;1048823;28;19951;-71
2021/07/01 00:52:35;;;;;;;;;;;;;;;11.84;100.00;95818.38;1048900;28;19955;-71
2021/07/01 00:53:05;;;;;;;;;;;;;;;11.82;100.00;95817.84;1048974;28;19924;-71
2021/07/01 00:53:36;;;;;;;;;;;;;;;11.76;100.00;95811.72;1048872;28;20431;-72
2021/07/01 00:54:06;;;;;;;;;;;;;;;11.68;100.00;95810.44;1049008;28;19978;-71
2021/07/01 00:54:37;;;;;;;;;;;;;;;11.72;100.00;95818.72;1048892;28;19939;-72
2021/07/01 00:55:07;;;;;;;;;;;;;;;11.74;100.00;95819.25;1048980;28;19922;-71
2021/07/01 00:55:38;;;;;;;;;;;;;;;11.71;100.00;95811.75;1048868;28;19915;-71
2021/07/01 00:56:09;;;;;;;;;;;;;;;11.71;100.00;95817.09;1049175;28;19917;-71
2021/07/01 00:56:39;;;;;;;;;;;;;;;11.71;100.00;95814.44;1049164;28;19940;-71
2021/07/01 00:57:10;;;;;;;;;;;;;;;11.65;100.00;95813.69;1048988;28;19919;-71
2021/07/01 00:57:40;;;;;;;;;;;;;;;11.68;100.00;95812.34;1044653;28;19940;-71
2021/07/01 00:58:10;;;;;;;;;;;;;;;11.69;100.00;95809.38;1044810;28;19913;-71
2021/07/01 00:58:41;;;;;;;;;;;;;;;11.67;100.00;95816.09;1040602;28;19917;-71
2021/07/01 00:59:11;;;;;;;;;;;;;;;11.66;100.00;95812.59;1044808;28;19913;-71
2021/07/01 00:59:41;;;;;;;;;;;;;;;11.68;100.00;95815.81;1048482;28;19939;-71
2021/07/01 01:00:23;;;;;;;;;;;;;;;11.73;100.00;95819.53;1048952;28;20274;-71
2021/07/01 01:01:04;;;;;;;;;;;;;;;11.71;100.00;95817.09;1049224;28;19916;-72
2021/07/01 01:01:35;;;;;;;;;;;;;;;11.66;100.00;95807.25;1049255;28;20400;-71
2021/07/01 01:02:05;;;;;;;;;;;;;;;11.61;100.00;95809.16;1049177;28;19916;-72
2021/07/01 01:02:36;;;;;;;;;;;;;;;11.58;100.00;95807.06;1048853;28;20309;-72
2021/07/01 01:03:06;;;;;;;;;;;;;;;11.57;100.00;95816.97;1048770;28;19958;-72
2021/07/01 01:03:37;;;;;;;;;;;;;;;11.60;100.00;95813.72;1048841;28;19909;-72
2021/07/01 01:04:08;;;;;;;;;;;;;;;11.60;100.00;95811.03;1048895;28;19912;-72
2021/07/01 01:04:38;;;;;;;;;;;;;;;11.58;100.00;95810.53;1049213;28;19908;-71
2021/07/01 01:05:08;;;;;;;;;;;;;;;11.60;100.00;95812.94;1049181;28;19915;-72
2021/07/01 01:05:38;;;;;;;;;;;;;;;11.60;100.00;95820.97;1050217;28;19912;-72
2021/07/01 01:06:09;;;;;;;;;;;;;;;11.64;100.00;95819.31;1051813;28;19909;-72
2021/07/01 01:06:39;;;;;;;;;;;;;;;11.64;100.00;95813.97;1051139;28;20265;-71
2021/07/01 01:07:09;;;;;;;;;;;;;;;11.57;100.00;95816.19;1051192;28;19920;-72
2021/07/01 01:07:40;;;;;;;;;;;;;;;11.57;100.00;95814.31;1046921;28;19912;-72
2021/07/01 01:08:10;;;;;;;;;;;;;;;11.60;100.00;95821.75;1044816;28;20169;-71
2021/07/01 01:08:40;;;;;;;;;;;;;;;11.61;100.00;95815.31;1044781;28;19924;-71
2021/07/01 01:09:10;;;;;;;;;;;;;;;11.60;100.00;95815.59;1049197;28;19916;-71
2021/07/01 01:09:41;;;;;;;;;;;;;;;11.51;100.00;95817.28;1048955;28;19922;-71
2021/07/01 01:10:11;;;;;;;;;;;;;;;11.49;100.00;95822.13;1048905;28;19908;-71
2021/07/01 01:10:41;;;;;;;;;;;;;;;11.52;100.00;95809.00;1048816;28;19916;-72
2021/07/01 01:11:12;;;;;;;;;;;;;;;11.48;100.00;95815.19;1048904;28;19989;-72
2021/07/01 01:11:42;;;;;;;;;;;;;;;11.50;100.00;95819.16;1049006;28;19920;-72
2021/07/01 01:12:12;;;;;;;;;;;;;;;11.52;100.00;95814.34;1049165;28;19919;-71
2021/07/01 01:12:43;;;;;;;;;;;;;;;11.53;100.00;95815.13;1049160;28;19936;-72
2021/07/01 01:13:25;;;;;;;;;;;;;;;11.55;100.00;95812.97;1048909;28;20361;-72
2021/07/01 01:13:56;;;;;;;;;;;;;;;11.57;100.00;95821.53;1044685;28;19925;-72
2021/07/01 01:14:27;;;;;;;;;;;;;;;11.52;100.00;95802.84;1044714;28;19920;-72
2021/07/01 01:14:57;;;;;;;;;;;;;;;11.57;100.00;95813.50;1046516;28;20374;-72
2021/07/01 01:15:27;;;;;;;;;;;;;;;11.54;100.00;95817.53;1048837;28;19913;-71
2021/07/01 01:15:59;;;;;;;;;;;;;;;11.54;100.00;95806.03;1048887;28;19912;-72
2021/07/01 01:16:29;;;;;;;;;;;;;;;11.53;100.00;95815.13;1049111;28;19917;-72
2021/07/01 01:17:00;;;;;;;;;;;;;;;11.54;100.00;95816.72;1049089;28;19913;-72
2021/07/01 01:17:30;;;;;;;;;;;;;;;11.57;100.00;95821.53;1049110;28;19912;-72
2021/07/01 01:18:00;;;;;;;;;;;;;;;11.55;100.00;95819.13;1049190;28;19912;-72
2021/07/01 01:18:30;;;;;;;;;;;;;;;11.49;100.00;95816.78;1048931;28;20353;-72
2021/07/01 01:19:01;;;;;;;;;;;;;;;11.52;100.00;95824.25;1049085;28;19916;-72
2021/07/01 01:19:31;;;;;;;;;;;;;;;11.55;100.00;95815.66;1049096;28;19913;-72
2021/07/01 01:20:02;;;;;;;;;;;;;;;11.56;100.00;95822.59;1049110;28;20003;-72
2021/07/01 01:20:32;;;;;;;;;;;;;;;11.53;100.00;95815.94;1049113;28;19912;-72
2021/07/01 01:21:02;;;;;;;;;;;;;;;11.51;100.00;95820.75;1049112;28;19916;-73
2021/07/01 01:21:33;;;;;;;;;;;;;;;11.53;100.00;95815.13;1049130;28;19913;-72
2021/07/01 01:22:03;;;;;;;;;;;;;;;11.54;100.00;95820.19;1049088;28;20264;-72
2021/07/01 01:22:33;;;;;;;;;;;;;;;11.56;100.00;95818.03;1049106;28;19951;-72
2021/07/01 01:23:03;;;;;;;;;;;;;;;11.57;100.00;95827.69;1048827;28;20337;-72
2021/07/01 01:23:34;;;;;;;;;;;;;;;11.57;100.00;95818.84;1044721;28;19913;-72
2021/07/01 01:24:04;;;;;;;;;;;;;;;11.54;100.00;95822.88;1044659;28;19916;-72
2021/07/01 01:24:35;;;;;;;;;;;;;;;11.56;100.00;95827.94;1044697;28;19913;-72
2021/07/01 01:25:05;;;;;;;;;;;;;;;11.55;100.00;95827.16;1048835;28;19938;-72
2021/07/01 01:25:36;;;;;;;;;;;;;;;11.59;100.00;95820.16;1049094;28;19919;-72
2021/07/01 01:26:06;;;;;;;;;;;;;;;11.62;100.00;95824.16;1049101;28;19916;-73
2021/07/01 01:26:36;;;;;;;;;;;;;;;11.61;100.00;95823.34;1049034;28;20277;-71
2021/07/01 01:27:06;;;;;;;;;;;;;;;11.58;100.00;95823.91;1049119;28;19921;-72
2021/07/01 01:27:37;;;;;;;;;;;;;;;11.61;100.00;95822.53;1048912;28;19908;-72
2021/07/01 01:28:07;;;;;;;;;;;;;;;11.62;100.00;95819.63;1049052;28;19917;-72
2021/07/01 01:28:37;;;;;;;;;;;;;;;11.62;100.00;95824.97;1049113;28;19951;-72
2021/07/01 01:29:08;;;;;;;;;;;;;;;11.63;100.00;95823.09;1048711;28;20434;-72
2021/07/01 01:29:38;;;;;;;;;;;;;;;11.62;100.00;95822.28;1048707;28;19962;-72
2021/07/01 01:30:08;;;;;;;;;;;;;;;11.63;100.00;95820.41;1048893;28;19913;-72
2021/07/01 01:30:39;;;;;;;;;;;;;;;11.62;100.00;95821.50;1048779;28;20381;-72
2021/07/01 01:31:09;;;;;;;;;;;;;;;11.65;100.00;95818.25;1048578;28;20436;-72
2021/07/01 01:31:40;;;;;;;;;;;;;;;11.65;100.00;95818.25;1048810;28;19912;-72
2021/07/01 01:32:10;;;;;;;;;;;;;;;11.62;100.00;95819.63;1049115;28;20381;-72
2021/07/01 01:32:40;;;;;;;;;;;;;;;11.56;100.00;95809.22;1048689;28;19913;-72
2021/07/01 01:33:11;;;;;;;;;;;;;;;11.62;100.00;95821.50;1048768;28;20371;-72
2021/07/01 01:33:41;;;;;;;;;;;;;;;11.59;100.00;95817.47;1048790;28;19919;-72
2021/07/01 01:34:11;;;;;;;;;;;;;;;11.61;100.00;95818.00;1048825;28;19968;-72
2021/07/01 01:34:42;;;;;;;;;;;;;;;11.60;100.00;95819.06;1048932;28;19920;-72
2021/07/01 01:35:12;;;;;;;;;;;;;;;11.59;100.00;95814.81;1048987;28;20357;-71
2021/07/01 01:35:42;;;;;;;;;;;;;;;11.52;100.00;95821.56;1049054;28;19912;-72
2021/07/01 01:36:13;;;;;;;;;;;;;;;11.49;100.00;95817.56;1048995;28;19998;-72
2021/07/01 01:36:43;;;;;;;;;;;;;;;11.52;100.00;95813.53;1049046;28;19951;-72
2021/07/01 01:37:13;;;;;;;;;;;;;;;11.53;100.00;95821.28;1048904;28;19919;-71
2021/07/01 01:37:43;;;;;;;;;;;;;;;11.51;100.00;95814.59;1049086;28;19905;-71
2021/07/01 01:38:14;;;;;;;;;;;;;;;11.49;100.00;95808.75;1049021;28;19908;-72
2021/07/01 01:38:44;;;;;;;;;;;;;;;11.48;100.00;95818.66;1049065;28;20376;-72
2021/07/01 01:39:18;;;;;;;;;;;;;;;11.48;100.00;95815.19;1049018;28;20195;-72
2021/07/01 01:39:49;;;;;;;;;;;;;;;11.47;100.00;95811.69;1048738;28;19934;-72
2021/07/01 01:40:19;;;;;;;;;;;;;;;11.44;100.00;95821.06;1048633;28;19993;-72
2021/07/01 01:40:49;;;;;;;;;;;;;;;11.43;100.00;95814.13;1048688;28;19914;-72
2021/07/01 01:41:23;;;;;;;;;;;;;;;11.44;100.00;95807.69;1048690;28;19905;-72
2021/07/01 01:41:53;;;;;;;;;;;;;;;11.48;100.00;95807.16;1049132;28;20376;-72
2021/07/01 01:42:23;;;;;;;;;;;;;;;11.51;100.00;95811.94;1049062;28;19915;-72
2021/07/01 01:42:54;;;;;;;;;;;;;;;11.53;100.00;95810.59;1049030;28;19915;-72
2021/07/01 01:43:24;;;;;;;;;;;;;;;11.56;100.00;95811.88;1049041;28;20323;-72
2021/07/01 01:43:54;;;;;;;;;;;;;;;11.58;100.00;95809.75;1049030;28;20011;-72
2021/07/01 01:44:25;;;;;;;;;;;;;;;11.59;100.00;95814.81;1049078;28;19951;-73
2021/07/01 01:44:55;;;;;;;;;;;;;;;11.58;100.00;95813.22;1048982;28;19909;-72
2021/07/01 01:45:25;;;;;;;;;;;;;;;11.60;100.00;95819.06;1049016;28;20005;-72
2021/07/01 01:45:55;;;;;;;;;;;;;;;11.58;100.00;95812.41;1048887;28;19927;-72
2021/07/01 01:46:35;;;;;;;;;;;;;;;11.50;100.00;95813.00;1048751;28;19958;-72
2021/07/01 01:47:18;;;;;;;;;;;;;;;11.45;100.00;95803.94;1048966;28;19973;-72
2021/07/01 01:47:49;;;;;;;;;;;;;;;11.45;100.00;95817.31;1048990;28;19909;-73
2021/07/01 01:48:19;;;;;;;;;;;;;;;11.45;100.00;95811.97;1049017;28;19916;-72
2021/07/01 01:48:53;;;;;;;;;;;;;;;11.50;100.00;95819.16;1049067;28;19909;-72
2021/07/01 01:49:23;;;;;;;;;;;;;;;11.51;100.00;95815.41;1049041;28;19995;-72
2021/07/01 01:49:53;;;;;;;;;;;;;;;11.54;100.00;95816.72;1048991;28;19905;-72
2021/07/01 01:50:24;;;;;;;;;;;;;;;11.52;100.00;95810.88;1048615;28;20346;-72
2021/07/01 01:50:54;;;;;;;;;;;;;;;11.50;100.00;95815.69;1048656;28;19904;-72
2021/07/01 01:51:24;;;;;;;;;;;;;;;11.50;100.00;95813.81;1048668;28;19908;-72
2021/07/01 01:51:54;;;;;;;;;;;;;;;11.50;100.00;95821.03;1048622;28;20280;-72
2021/07/01 01:52:25;;;;;;;;;;;;;;;11.52;100.00;95819.69;1048999;28;19948;-71
2021/07/01 01:52:55;;;;;;;;;;;;;;;11.53;100.00;95815.94;1049026;28;19915;-72
2021/07/01 01:53:25;;;;;;;;;;;;;;;11.51;100.00;95818.06;1049069;28;20335;-72
2021/07/01 01:53:56;;;;;;;;;;;;;;;11.53;100.00;95815.94;1048966;28;19927;-72
2021/07/01 01:54:26;;;;;;;;;;;;;;;11.54;100.00;95816.72;1048978;28;19958;-73
2021/07/01 01:54:56;;;;;;;;;;;;;;;11.51;100.00;95820.75;1048672;28;19944;-72
2021/07/01 01:55:26;;;;;;;;;;;;;;;11.53;100.00;95812.47;1048661;28;20384;-72
2021/07/01 01:55:57;;;;;;;;;;;;;;;11.48;100.00;95815.19;1048732;28;19995;-72
2021/07/01 01:56:36;;;;;;;;;;;;;;;11.48;100.00;95817.84;1048621;28;19908;-72
2021/07/01 01:57:07;;;;;;;;;;;;;;;11.50;100.00;95818.34;1048678;28;19905;-72
2021/07/01 01:57:37;;;;;;;;;;;;;;;11.50;100.00;95813.00;1048911;28;19912;-72
2021/07/01 01:58:07;;;;;;;;;;;;;;;11.53;100.00;95815.13;1048881;28;19944;-72
2021/07/01 01:58:38;;;;;;;;;;;;;;;11.55;100.00;95818.31;1048968;28;19904;-72
2021/07/01 01:59:08;;;;;;;;;;;;;;;11.55;100.00;95821.00;1049018;28;19932;-72
2021/07/01 01:59:38;;;;;;;;;;;;;;;11.52;100.00;95818.91;1049000;28;19916;-72
2021/07/01 02:00:09;;;;;;;;;;;;;;;11.51;100.00;95820.75;1048967;28;19904;-72
2021/07/01 02:00:39;;;;;;;;;;;;;;;11.46;100.00;95826.13;1048976;28;19905;-72
2021/07/01 02:01:10;;;;;;;;;;;;;;;11.43;100.00;95821.38;1049026;28;19904;-72
2021/07/01 02:01:40;;;;;;;;;;;;;;;11.43;100.00;95821.38;1049088;28;19905;-72
2021/07/01 02:02:10;;;;;;;;;;;;;;;11.43;100.00;95818.69;1048864;28;20369;-72
2021/07/01 02:02:41;;;;;;;;;;;;;;;11.44;100.00;95818.41;1049044;28;20018;-72
2021/07/01 02:03:11;;;;;;;;;;;;;;;11.44;100.00;95823.75;1048575;28;19936;-72
2021/07/01 02:03:41;;;;;;;;;;;;;;;11.45;100.00;95820.00;1048654;28;19905;-72
2021/07/01 02:04:11;;;;;;;;;;;;;;;11.45;100.00;95827.22;1048627;28;19951;-72
2021/07/01 02:04:42;;;;;;;;;;;;;;;11.49;100.00;95814.09;1048686;28;19920;-72
2021/07/01 02:05:12;;;;;;;;;;;;;;;11.48;100.00;95821.31;1048919;28;20380;-72
2021/07/01 02:05:42;;;;;;;;;;;;;;;11.48;100.00;95815.97;1049033;28;19913;-72
2021/07/01 02:06:13;;;;;;;;;;;;;;;11.48;100.00;95812.50;1048527;28;19948;-72
2021/07/01 02:06:43;;;;;;;;;;;;;;;11.47;100.00;95821.63;1048646;28;20366;-72
2021/07/01 02:07:13;;;;;;;;;;;;;;;11.48;100.00;95820.53;1048713;28;19904;-72
2021/07/01 02:07:43;;;;;;;;;;;;;;;11.48;100.00;95815.19;1048725;28;19908;-72
2021/07/01 02:08:14;;;;;;;;;;;;;;;11.49;100.00;95817.56;1049049;28;19961;-72
2021/07/01 02:08:44;;;;;;;;;;;;;;;11.50;100.00;95815.69;1048971;28;19948;-72
2021/07/01 02:09:14;;;;;;;;;;;;;;;11.50;100.00;95821.84;1049029;28;19905;-72
2021/07/01 02:09:45;;;;;;;;;;;;;;;11.51;100.00;95819.94;1048973;28;19948;-72
2021/07/01 02:10:16;;;;;;;;;;;;;;;11.50;100.00;95818.34;1049001;28;19901;-72
2021/07/01 02:10:46;;;;;;;;;;;;;;;11.52;100.00;95825.03;1048937;28;20302;-72
2021/07/01 02:11:17;;;;;;;;;;;;;;;11.53;100.00;95820.50;1048538;28;19919;-72
2021/07/01 02:11:47;;;;;;;;;;;;;;;11.54;100.00;95814.06;1048613;28;19909;-73
2021/07/01 02:12:17;;;;;;;;;;;;;;;11.51;100.00;95819.94;1048540;28;19942;-72
2021/07/01 02:12:48;;;;;;;;;;;;;;;11.47;100.00;95816.25;1048479;28;19931;-72
2021/07/01 02:13:18;;;;;;;;;;;;;;;11.50;100.00;95824.50;1048984;28;19919;-72
2021/07/01 02:13:48;;;;;;;;;;;;;;;11.52;100.00;95814.34;1048983;28;19908;-71
2021/07/01 02:14:18;;;;;;;;;;;;;;;11.51;100.00;95825.31;1048990;28;19954;-72
2021/07/01 02:14:49;;;;;;;;;;;;;;;11.50;100.00;95821.03;1048970;28;19908;-71
2021/07/01 02:15:21;;;;;;;;;;;;;;;11.49;100.00;95822.13;1048869;28;19913;-71
2021/07/01 02:15:51;;;;;;;;;;;;;;;11.44;100.00;95814.94;1048878;28;19914;-71
2021/07/01 02:16:21;;;;;;;;;;;;;;;11.44;100.00;95818.41;1048959;28;19912;-72
2021/07/01 02:16:51;;;;;;;;;;;;;;;11.43;100.00;95822.16;1048881;28;20395;-71
2021/07/01 02:17:22;;;;;;;;;;;;;;;11.46;100.00;95812.75;1048925;28;19920;-72
2021/07/01 02:17:52;;;;;;;;;;;;;;;11.47;100.00;95813.59;1048997;28;19905;-72
2021/07/01 02:18:22;;;;;;;;;;;;;;;11.45;100.00;95820.00;1048909;28;19912;-72
2021/07/01 02:18:53;;;;;;;;;;;;;;;11.47;100.00;95819.72;1048611;28;20292;-71
2021/07/01 02:19:23;;;;;;;;;;;;;;;11.44;100.00;95818.41;1048687;28;19916;-71
2021/07/01 02:19:53;;;;;;;;;;;;;;;11.45;100.00;95806.59;1048714;28;19911;-71
2021/07/01 02:20:24;;;;;;;;;;;;;;;11.42;100.00;95817.88;1048651;28;19923;-71
2021/07/01 02:20:55;;;;;;;;;;;;;;;11.40;100.00;95812.00;1048539;28;20284;-71
2021/07/01 02:21:25;;;;;;;;;;;;;;;11.42;100.00;95817.09;1048627;28;19927;-72
2021/07/01 02:21:55;;;;;;;;;;;;;;;11.42;100.00;95817.09;1048631;28;19998;-71
2021/07/01 02:22:26;;;;;;;;;;;;;;;11.42;100.00;95817.88;1048626;28;19912;-72
2021/07/01 02:22:56;;;;;;;;;;;;;;;11.43;100.00;95816.00;1048940;28;20412;-71
2021/07/01 02:23:26;;;;;;;;;;;;;;;11.45;100.00;95817.31;1048917;28;20085;-71
2021/07/01 02:23:56;;;;;;;;;;;;;;;11.46;100.00;95820.78;1048969;28;19944;-71
2021/07/01 02:24:27;;;;;;;;;;;;;;;11.43;100.00;95819.47;1048893;28;19916;-71
2021/07/01 02:24:57;;;;;;;;;;;;;;;11.43;100.00;95821.38;1048921;28;19958;-71
2021/07/01 02:25:27;;;;;;;;;;;;;;;11.47;100.00;95818.94;1048874;28;19916;-72
2021/07/01 02:25:58;;;;;;;;;;;;;;;11.50;100.00;95818.34;1048985;28;19904;-72
2021/07/01 02:26:28;;;;;;;;;;;;;;;11.51;100.00;95823.41;1048798;28;20435;-72
2021/07/01 02:26:58;;;;;;;;;;;;;;;11.52;100.00;95816.22;1048946;28;19915;-71
2021/07/01 02:27:28;;;;;;;;;;;;;;;11.52;100.00;95824.25;1048669;28;19923;-71
2021/07/01 02:27:59;;;;;;;;;;;;;;;11.51;100.00;95820.75;1048929;28;19916;-71
2021/07/01 02:28:29;;;;;;;;;;;;;;;11.52;100.00;95822.38;1048925;28;19917;-72
2021/07/01 02:28:59;;;;;;;;;;;;;;;11.50;100.00;95827.19;1048990;28;20353;-71
2021/07/01 02:29:29;;;;;;;;;;;;;;;11.52;100.00;95821.56;1048859;28;19917;-71
2021/07/01 02:30:00;;;;;;;;;;;;;;;11.54;100.00;95819.41;1048914;28;19966;-71
2021/07/01 02:30:30;;;;;;;;;;;;;;;11.54;100.00;95825.56;1048918;28;19916;-71
2021/07/01 02:31:00;;;;;;;;;;;;;;;11.54;100.00;95820.19;1049012;28;19905;-71
2021/07/01 02:31:31;;;;;;;;;;;;;;;11.57;100.00;95824.22;1048875;28;19916;-72
2021/07/01 02:32:01;;;;;;;;;;;;;;;11.54;100.00;95822.09;1048999;28;20345;-71
2021/07/01 02:32:32;;;;;;;;;;;;;;;11.57;100.00;95824.22;1048896;28;20521;-71
2021/07/01 02:33:02;;;;;;;;;;;;;;;11.56;100.00;95815.34;1048879;28;20375;-71
2021/07/01 02:33:32;;;;;;;;;;;;;;;11.58;100.00;95820.44;1048836;28;19955;-71
2021/07/01 02:34:03;;;;;;;;;;;;;;;11.61;100.00;95817.19;1048946;28;19897;-71
2021/07/01 02:34:39;;;;;;;;;;;;;;;11.62;100.00;95826.84;1048762;28;20016;-72
2021/07/01 02:35:10;;;;;;;;;;;;;;;11.61;100.00;95820.66;1049036;28;20396;-71
2021/07/01 02:35:40;;;;;;;;;;;;;;;11.58;100.00;95828.47;1048485;28;19920;-71
2021/07/01 02:36:10;;;;;;;;;;;;;;;11.59;100.00;95824.72;1048480;28;19940;-71
2021/07/01 02:36:41;;;;;;;;;;;;;;;11.60;100.00;95829.78;1048595;28;19913;-71
2021/07/01 02:37:11;;;;;;;;;;;;;;;11.62;100.00;95816.94;1048646;28;20526;-71